sensor_id;sensor_type;location;lat;lon;timestamp;pressure;altitude;pressure_sealevel;temperature;humidity
43878;BME280;29815;48.184;11.268;2023-01-04T00:00:42;96832.56;;;0.14;100.00
43878;BME280;29815;48.184;11.268;2023-01-04T00:03:12;96827.44;;;0.12;100.00
43878;BME280;29815;48.184;11.268;2023-01-04T00:05:41;96820.34;;;0.13;100.00
43878;BME280;29815;48.184;11.268;2023-01-04T00:08:11;96828.28;;;0.13;100.00
43878;BME280;29815;48.184;11.268;2023-01-04T00:10:40;96831.44;;;0.08;100.00
43878;BME280;29815;48.184;11.268;2023-01-04T00:13:11;96825.50;;;0.06;100.00
43878;BME280;29815;48.184;11.268;2023-01-04T00:15:40;96826.47;;;0.05;100.00
43878;BME280;29815;48.184;11.268;2023-01-04T00:18:10;96817.44;;;-0.01;100.00
43878;BME280;29815;48.184;11.268;2023-01-04T00:20:41;96818.78;;;-0.05;100.00
43878;BME280;29815;48.184;11.268;2023-01-04T00:23:10;96824.56;;;-0.01;100.00
43878;BME280;29815;48.184;11.268;2023-01-04T00:25:40;96823.00;;;0.05;100.00
43878;BME280;29815;48.184;11.268;2023-01-04T00:28:11;96828.63;;;0.10;100.00
43878;BME280;29815;48.184;11.268;2023-01-04T00:30:40;96822.63;;;0.16;100.00
43878;BME280;29815;48.184;11.268;2023-01-04T00:33:10;96808.06;;;0.43;100.00
43878;BME280;29815;48.184;11.268;2023-01-04T00:35:39;96806.31;;;0.58;100.00
43878;BME280;29815;48.184;11.268;2023-01-04T00:38:13;96804.59;;;0.65;100.00
43878;BME280;29815;48.184;11.268;2023-01-04T00:40:43;96802.09;;;0.86;100.00
43878;BME280;29815;48.184;11.268;2023-01-04T00:43:14;96798.75;;;0.92;100.00
43878;BME280;29815;48.184;11.268;2023-01-04T00:45:43;96796.31;;;1.06;100.00
43878;BME280;29815;48.184;11.268;2023-01-04T00:48:13;96783.44;;;1.02;100.00
43878;BME280;29815;48.184;11.268;2023-01-04T00:50:43;96786.78;;;1.11;100.00
43878;BME280;29815;48.184;11.268;2023-01-04T00:53:13;96788.09;;;1.15;100.00
43878;BME280;29815;48.184;11.268;2023-01-04T00:55:45;96797.22;;;1.13;100.00
43878;BME280;29815;48.184;11.268;2023-01-04T00:58:16;96800.16;;;1.18;100.00
43878;BME280;29815;48.184;11.268;2023-01-04T01:00:45;96807.13;;;1.19;100.00
43878;BME280;29815;48.184;11.268;2023-01-04T01:03:14;96802.47;;;1.21;100.00
43878;BME280;29815;48.184;11.268;2023-01-04T01:05:44;96811.41;;;1.20;100.00
43878;BME280;29815;48.184;11.268;2023-01-04T01:08:13;96806.75;;;1.22;100.00
43878;BME280;29815;48.184;11.268;2023-01-04T01:11:00;96810.06;;;1.24;100.00
43878;BME280;29815;48.184;11.268;2023-01-04T01:13:33;96815.00;;;1.27;100.00
43878;BME280;29815;48.184;11.268;2023-01-04T01:16:03;96818.19;;;1.37;100.00
43878;BME280;29815;48.184;11.268;2023-01-04T01:18:36;96818.03;;;1.39;100.00
43878;BME280;29815;48.184;11.268;2023-01-04T01:21:08;96818.13;;;1.45;100.00
43878;BME280;29815;48.184;11.268;2023-01-04T01:23:38;96812.09;;;1.51;100.00
43878;BME280;29815;48.184;11.268;2023-01-04T01:26:12;96807.25;;;1.55;100.00
43878;BME280;29815;48.184;11.268;2023-01-04T01:28:45;96811.66;;;1.62;100.00
43878;BME280;29815;48.184;11.268;2023-01-04T01:31:18;96814.91;;;1.64;100.00
43878;BME280;29815;48.184;11.268;2023-01-04T01:33:51;96818.22;;;1.66;100.00
43878;BME280;29815;48.184;11.268;2023-01-04T01:36:24;96820.44;;;1.78;100.00
43878;BME280;29815;48.184;11.268;2023-01-04T01:38:54;96819.97;;;1.89;100.00
43878;BME280;29815;48.184;11.268;2023-01-04T01:41:26;96814.47;;;1.90;100.00
43878;BME280;29815;48.184;11.268;2023-01-04T01:44:01;96810.25;;;1.96;100.00
43878;BME280;29815;48.184;11.268;2023-01-04T01:46:38;96803.75;;;1.98;100.00
43878;BME280;29815;48.184;11.268;2023-01-04T01:49:16;96806.22;;;2.00;100.00
43878;BME280;29815;48.184;11.268;2023-01-04T01:51:52;96803.19;;;2.03;100.00
43878;BME280;29815;48.184;11.268;2023-01-04T01:54:27;96809.97;;;2.06;100.00
43878;BME280;29815;48.184;11.268;2023-01-04T01:57:01;96810.41;;;2.09;100.00
43878;BME280;29815;48.184;11.268;2023-01-04T01:59:37;96809.31;;;2.18;100.00
43878;BME280;29815;48.184;11.268;2023-01-04T02:02:10;96811.28;;;2.31;100.00
43878;BME280;29815;48.184;11.268;2023-01-04T02:04:45;96804.47;;;2.43;100.00
43878;BME280;29815;48.184;11.268;2023-01-04T02:07:20;96805.53;;;2.49;100.00
43878;BME280;29815;48.184;11.268;2023-01-04T02:09:51;96802.19;;;2.61;100.00
43878;BME280;29815;48.184;11.268;2023-01-04T02:12:22;96808.66;;;2.73;100.00
43878;BME280;29815;48.184;11.268;2023-01-04T02:14:53;96806.50;;;2.84;100.00
43878;BME280;29815;48.184;11.268;2023-01-04T02:17:35;96791.06;;;2.94;100.00
43878;BME280;29815;48.184;11.268;2023-01-04T02:20:30;96777.38;;;2.97;100.00
43878;BME280;29815;48.184;11.268;2023-01-04T02:23:42;96762.88;;;2.99;100.00
43878;BME280;29815;48.184;11.268;2023-01-04T02:26:58;96756.75;;;2.99;100.00
43878;BME280;29815;48.184;11.268;2023-01-04T02:33:42;96770.63;;;3.22;100.00
43878;BME280;29815;48.184;11.268;2023-01-04T02:36:24;96763.59;;;3.15;100.00
43878;BME280;29815;48.184;11.268;2023-01-04T02:39:17;96757.47;;;3.14;100.00
43878;BME280;29815;48.184;11.268;2023-01-04T02:41:56;96758.41;;;3.06;100.00
43878;BME280;29815;48.184;11.268;2023-01-04T02:44:38;96746.94;;;2.99;100.00
43878;BME280;29815;48.184;11.268;2023-01-04T02:47:28;96741.56;;;2.93;100.00
43878;BME280;29815;48.184;11.268;2023-01-04T02:50:20;96745.97;;;2.86;100.00
43878;BME280;29815;48.184;11.268;2023-01-04T02:53:06;96742.50;;;2.85;100.00
43878;BME280;29815;48.184;11.268;2023-01-04T02:55:48;96744.28;;;2.78;100.00
43878;BME280;29815;48.184;11.268;2023-01-04T02:58:39;96737.91;;;2.72;100.00
43878;BME280;29815;48.184;11.268;2023-01-04T03:01:24;96737.66;;;2.67;100.00
43878;BME280;29815;48.184;11.268;2023-01-04T03:04:29;96745.56;;;2.61;100.00
43878;BME280;29815;48.184;11.268;2023-01-04T03:07:29;96755.69;;;2.51;100.00
43878;BME280;29815;48.184;11.268;2023-01-04T03:10:08;96756.88;;;2.48;100.00
43878;BME280;29815;48.184;11.268;2023-01-04T03:12:48;96770.63;;;2.52;100.00
43878;BME280;29815;48.184;11.268;2023-01-04T03:15:25;96762.47;;;2.53;100.00
43878;BME280;29815;48.184;11.268;2023-01-04T03:18:01;96759.34;;;2.50;100.00
43878;BME280;29815;48.184;11.268;2023-01-04T03:20:38;96743.00;;;2.46;100.00
43878;BME280;29815;48.184;11.268;2023-01-04T03:23:10;96743.38;;;2.43;100.00
43878;BME280;29815;48.184;11.268;2023-01-04T03:26:03;96743.38;;;2.43;100.00
43878;BME280;29815;48.184;11.268;2023-01-04T03:28:55;96741.53;;;2.44;100.00
43878;BME280;29815;48.184;11.268;2023-01-04T03:31:51;96746.03;;;2.43;100.00
43878;BME280;29815;48.184;11.268;2023-01-04T03:34:41;96742.34;;;2.44;100.00
43878;BME280;29815;48.184;11.268;2023-01-04T03:37:35;96743.09;;;2.38;100.00
43878;BME280;29815;48.184;11.268;2023-01-04T03:40:19;96742.66;;;2.34;100.00
43878;BME280;29815;48.184;11.268;2023-01-04T03:43:16;96733.16;;;2.25;100.00
43878;BME280;29815;48.184;11.268;2023-01-04T03:46:11;96731.47;;;2.18;100.00
43878;BME280;29815;48.184;11.268;2023-01-04T03:49:07;96721.97;;;2.09;100.00
43878;BME280;29815;48.184;11.268;2023-01-04T03:51:40;96720.50;;;2.06;100.00
43878;BME280;29815;48.184;11.268;2023-01-04T03:54:17;96711.25;;;2.02;100.00
43878;BME280;29815;48.184;11.268;2023-01-04T03:56:50;96713.38;;;1.92;100.00
43878;BME280;29815;48.184;11.268;2023-01-04T03:59:22;96704.38;;;1.86;100.00
43878;BME280;29815;48.184;11.268;2023-01-04T04:01:52;96713.72;;;1.82;100.00
43878;BME280;29815;48.184;11.268;2023-01-04T04:04:22;96708.50;;;1.74;100.00
43878;BME280;29815;48.184;11.268;2023-01-04T04:07:09;96706.22;;;1.71;100.00
43878;BME280;29815;48.184;11.268;2023-01-04T04:09:58;96704.13;;;1.66;100.00
43878;BME280;29815;48.184;11.268;2023-01-04T04:12:27;96693.50;;;1.66;100.00
43878;BME280;29815;48.184;11.268;2023-01-04T04:14:57;96682.66;;;1.61;100.00
43878;BME280;29815;48.184;11.268;2023-01-04T04:17:26;96688.69;;;1.55;100.00
43878;BME280;29815;48.184;11.268;2023-01-04T04:19:56;96690.06;;;1.51;100.00
43878;BME280;29815;48.184;11.268;2023-01-04T04:22:25;96685.50;;;1.45;100.00
43878;BME280;29815;48.184;11.268;2023-01-04T04:24:55;96684.56;;;1.38;100.00
43878;BME280;29815;48.184;11.268;2023-01-04T04:27:25;96679.03;;;1.33;100.00
43878;BME280;29815;48.184;11.268;2023-01-04T04:29:56;96675.63;;;1.24;100.00
43878;BME280;29815;48.184;11.268;2023-01-04T04:32:26;96675.38;;;1.19;100.00
43878;BME280;29815;48.184;11.268;2023-01-04T04:34:55;96673.91;;;1.17;100.00
43878;BME280;29815;48.184;11.268;2023-01-04T04:37:25;96671.78;;;1.12;100.00
43878;BME280;29815;48.184;11.268;2023-01-04T04:39:57;96671.38;;;1.09;100.00
43878;BME280;29815;48.184;11.268;2023-01-04T04:42:28;96676.72;;;1.15;100.00
43878;BME280;29815;48.184;11.268;2023-01-04T04:44:56;96685.44;;;1.09;100.00
43878;BME280;29815;48.184;11.268;2023-01-04T04:47:26;96674.09;;;1.15;100.00
43878;BME280;29815;48.184;11.268;2023-01-04T04:49:56;96676.81;;;1.22;100.00
43878;BME280;29815;48.184;11.268;2023-01-04T04:52:25;96668.28;;;1.41;100.00
43878;BME280;29815;48.184;11.268;2023-01-04T04:54:55;96675.78;;;1.52;100.00
43878;BME280;29815;48.184;11.268;2023-01-04T04:57:24;96672.59;;;1.57;100.00
43878;BME280;29815;48.184;11.268;2023-01-04T04:59:55;96682.78;;;1.75;100.00
43878;BME280;29815;48.184;11.268;2023-01-04T05:02:25;96676.66;;;1.74;100.00
43878;BME280;29815;48.184;11.268;2023-01-04T05:04:54;96678.47;;;1.74;100.00
43878;BME280;29815;48.184;11.268;2023-01-04T05:07:24;96677.09;;;1.78;100.00
43878;BME280;29815;48.184;11.268;2023-01-04T05:09:53;96687.63;;;1.71;100.00
43878;BME280;29815;48.184;11.268;2023-01-04T05:12:23;96684.72;;;1.66;100.00
43878;BME280;29815;48.184;11.268;2023-01-04T05:15:11;96687.38;;;1.66;100.00
43878;BME280;29815;48.184;11.268;2023-01-04T05:17:41;96682.25;;;1.64;100.00
43878;BME280;29815;48.184;11.268;2023-01-04T05:20:11;96685.22;;;1.55;100.00
43878;BME280;29815;48.184;11.268;2023-01-04T05:22:40;96680.09;;;1.53;100.00
43878;BME280;29815;48.184;11.268;2023-01-04T05:25:10;96682.56;;;1.55;100.00
43878;BME280;29815;48.184;11.268;2023-01-04T05:27:40;96685.84;;;1.57;100.00
43878;BME280;29815;48.184;11.268;2023-01-04T05:30:13;96678.53;;;1.59;100.00
43878;BME280;29815;48.184;11.268;2023-01-04T05:33:13;96681.72;;;1.54;100.00
43878;BME280;29815;48.184;11.268;2023-01-04T05:35:42;96681.84;;;1.46;100.00
43878;BME280;29815;48.184;11.268;2023-01-04T05:38:12;96679.63;;;1.50;100.00
43878;BME280;29815;48.184;11.268;2023-01-04T05:40:42;96675.69;;;1.60;100.00
43878;BME280;29815;48.184;11.268;2023-01-04T05:43:12;96678.00;;;1.49;100.00
43878;BME280;29815;48.184;11.268;2023-01-04T05:45:47;96680.28;;;1.52;100.00
43878;BME280;29815;48.184;11.268;2023-01-04T05:48:17;96686.22;;;1.54;100.00
43878;BME280;29815;48.184;11.268;2023-01-04T05:50:47;96684.84;;;1.58;100.00
43878;BME280;29815;48.184;11.268;2023-01-04T05:53:17;96687.88;;;1.55;100.00
43878;BME280;29815;48.184;11.268;2023-01-04T05:55:47;96686.94;;;1.48;100.00
43878;BME280;29815;48.184;11.268;2023-01-04T05:58:17;96690.25;;;1.50;100.00
43878;BME280;29815;48.184;11.268;2023-01-04T06:00:47;96683.84;;;1.44;100.00
43878;BME280;29815;48.184;11.268;2023-01-04T06:03:17;96685.50;;;1.45;100.00
43878;BME280;29815;48.184;11.268;2023-01-04T06:05:48;96684.13;;;1.49;100.00
43878;BME280;29815;48.184;11.268;2023-01-04T06:08:18;96675.97;;;1.51;100.00
43878;BME280;29815;48.184;11.268;2023-01-04T06:10:52;96677.81;;;1.50;100.00
43878;BME280;29815;48.184;11.268;2023-01-04T06:13:21;96678.34;;;1.46;100.00
43878;BME280;29815;48.184;11.268;2023-01-04T06:15:52;96680.72;;;1.55;100.00
43878;BME280;29815;48.184;11.268;2023-01-04T06:18:22;96675.97;;;1.51;100.00
43878;BME280;29815;48.184;11.268;2023-01-04T06:20:51;96672.50;;;1.50;100.00
43878;BME280;29815;48.184;11.268;2023-01-04T06:23:21;96669.75;;;1.58;100.00
43878;BME280;29815;48.184;11.268;2023-01-04T06:25:50;96670.03;;;1.63;100.00
43878;BME280;29815;48.184;11.268;2023-01-04T06:28:19;96670.78;;;1.79;100.00
43878;BME280;29815;48.184;11.268;2023-01-04T06:30:49;96670.16;;;1.77;100.00
43878;BME280;29815;48.184;11.268;2023-01-04T06:33:20;96672.31;;;1.88;100.00
43878;BME280;29815;48.184;11.268;2023-01-04T06:35:53;96663.78;;;1.92;100.00
43878;BME280;29815;48.184;11.268;2023-01-04T06:38:23;96666.19;;;1.87;100.00
43878;BME280;29815;48.184;11.268;2023-01-04T06:40:52;96665.19;;;1.88;100.00
43878;BME280;29815;48.184;11.268;2023-01-04T06:43:22;96665.41;;;1.93;100.00
43878;BME280;29815;48.184;11.268;2023-01-04T06:45:51;96653.41;;;1.97;100.00
43878;BME280;29815;48.184;11.268;2023-01-04T06:48:22;96654.63;;;1.95;100.00
43878;BME280;29815;48.184;11.268;2023-01-04T06:50:52;96656.25;;;1.96;100.00
43878;BME280;29815;48.184;11.268;2023-01-04T06:53:21;96643.81;;;1.96;100.00
43878;BME280;29815;48.184;11.268;2023-01-04T06:55:51;96644.81;;;1.95;100.00
43878;BME280;29815;48.184;11.268;2023-01-04T06:58:20;96642.41;;;2.00;100.00
43878;BME280;29815;48.184;11.268;2023-01-04T07:00:51;96637.81;;;2.09;100.00
43878;BME280;29815;48.184;11.268;2023-01-04T07:03:22;96641.28;;;2.10;100.00
43878;BME280;29815;48.184;11.268;2023-01-04T07:05:51;96636.69;;;2.18;100.00
43878;BME280;29815;48.184;11.268;2023-01-04T07:08:21;96634.41;;;2.15;100.00
43878;BME280;29815;48.184;11.268;2023-01-04T07:10:51;96629.03;;;2.09;100.00
43878;BME280;29815;48.184;11.268;2023-01-04T07:13:21;96636.34;;;2.07;100.00
43878;BME280;29815;48.184;11.268;2023-01-04T07:15:50;96635.72;;;2.04;100.00
43878;BME280;29815;48.184;11.268;2023-01-04T07:18:22;96627.00;;;2.11;100.00
43878;BME280;29815;48.184;11.268;2023-01-04T07:20:51;96630.47;;;2.11;100.00
43878;BME280;29815;48.184;11.268;2023-01-04T07:23:21;96640.53;;;2.16;100.00
43878;BME280;29815;48.184;11.268;2023-01-04T07:25:50;96635.97;;;2.10;100.00
43878;BME280;29815;48.184;11.268;2023-01-04T07:28:19;96636.16;;;2.08;100.00
43878;BME280;29815;48.184;11.268;2023-01-04T07:31:04;96639.13;;;2.20;100.00
43878;BME280;29815;48.184;11.268;2023-01-04T07:33:36;96636.69;;;2.18;100.00
43878;BME280;29815;48.184;11.268;2023-01-04T07:36:06;96632.38;;;2.17;100.00
43878;BME280;29815;48.184;11.268;2023-01-04T07:38:36;96629.53;;;2.19;100.00
43878;BME280;29815;48.184;11.268;2023-01-04T07:41:06;96625.47;;;2.23;100.00
43878;BME280;29815;48.184;11.268;2023-01-04T07:43:35;96618.94;;;2.25;100.00
43878;BME280;29815;48.184;11.268;2023-01-04T07:46:05;96618.13;;;2.25;100.00
43878;BME280;29815;48.184;11.268;2023-01-04T07:48:36;96618.81;;;2.33;100.00
43878;BME280;29815;48.184;11.268;2023-01-04T07:51:05;96606.22;;;2.42;100.00
43878;BME280;29815;48.184;11.268;2023-01-04T07:53:35;96601.75;;;2.49;100.00
43878;BME280;29815;48.184;11.268;2023-01-04T07:56:05;96612.50;;;2.62;100.00
43878;BME280;29815;48.184;11.268;2023-01-04T07:58:42;96609.44;;;2.65;100.00
43878;BME280;29815;48.184;11.268;2023-01-04T08:01:13;96615.00;;;2.70;100.00
43878;BME280;29815;48.184;11.268;2023-01-04T08:03:45;96613.59;;;2.75;100.00
43878;BME280;29815;48.184;11.268;2023-01-04T08:06:16;96615.31;;;2.89;100.00
43878;BME280;29815;48.184;11.268;2023-01-04T08:08:47;96619.66;;;2.96;100.00
43878;BME280;29815;48.184;11.268;2023-01-04T08:11:19;96611.94;;;3.08;100.00
43878;BME280;29815;48.184;11.268;2023-01-04T08:13:51;96609.31;;;3.15;100.00
43878;BME280;29815;48.184;11.268;2023-01-04T08:16:23;96604.66;;;3.30;100.00
43878;BME280;29815;48.184;11.268;2023-01-04T08:18:58;96598.75;;;3.34;100.00
43878;BME280;29815;48.184;11.268;2023-01-04T08:21:32;96607.19;;;3.45;100.00
43878;BME280;29815;48.184;11.268;2023-01-04T08:24:04;96600.88;;;3.59;100.00
43878;BME280;29815;48.184;11.268;2023-01-04T08:26:34;96595.00;;;3.77;100.00
43878;BME280;29815;48.184;11.268;2023-01-04T08:29:03;96600.16;;;3.91;100.00
43878;BME280;29815;48.184;11.268;2023-01-04T08:31:33;96607.78;;;4.07;100.00
43878;BME280;29815;48.184;11.268;2023-01-04T08:34:07;96613.91;;;4.21;100.00
43878;BME280;29815;48.184;11.268;2023-01-04T08:36:45;96609.41;;;4.28;100.00
43878;BME280;29815;48.184;11.268;2023-01-04T08:39:16;96618.66;;;4.32;100.00
43878;BME280;29815;48.184;11.268;2023-01-04T08:41:46;96600.81;;;4.33;100.00
43878;BME280;29815;48.184;11.268;2023-01-04T08:44:39;96603.28;;;4.34;100.00
43878;BME280;29815;48.184;11.268;2023-01-04T08:47:09;96596.94;;;4.35;100.00
43878;BME280;29815;48.184;11.268;2023-01-04T08:49:40;96597.09;;;4.40;100.00
43878;BME280;29815;48.184;11.268;2023-01-04T08:52:09;96593.00;;;4.38;100.00
43878;BME280;29815;48.184;11.268;2023-01-04T08:54:40;96588.91;;;4.42;100.00
43878;BME280;29815;48.184;11.268;2023-01-04T08:57:10;96584.59;;;4.48;100.00
43878;BME280;29815;48.184;11.268;2023-01-04T08:59:39;96593.44;;;4.55;100.00
43878;BME280;29815;48.184;11.268;2023-01-04T09:02:21;96587.06;;;4.56;100.00
43878;BME280;29815;48.184;11.268;2023-01-04T09:04:53;96590.13;;;4.59;100.00
43878;BME280;29815;48.184;11.268;2023-01-04T09:07:28;96590.72;;;4.68;100.00
43878;BME280;29815;48.184;11.268;2023-01-04T09:09:57;96579.22;;;4.81;100.00
43878;BME280;29815;48.184;11.268;2023-01-04T09:12:27;96576.09;;;4.97;100.00
43878;BME280;29815;48.184;11.268;2023-01-04T09:14:57;96584.88;;;5.17;100.00
43878;BME280;29815;48.184;11.268;2023-01-04T09:17:26;96580.72;;;5.34;100.00
43878;BME280;29815;48.184;11.268;2023-01-04T09:19:57;96594.34;;;5.58;100.00
43878;BME280;29815;48.184;11.268;2023-01-04T09:22:26;96588.75;;;5.72;100.00
43878;BME280;29815;48.184;11.268;2023-01-04T09:24:56;96591.34;;;5.86;100.00
43878;BME280;29815;48.184;11.268;2023-01-04T09:27:25;96591.94;;;5.94;100.00
43878;BME280;29815;48.184;11.268;2023-01-04T09:29:55;96591.09;;;6.00;100.00
43878;BME280;29815;48.184;11.268;2023-01-04T09:32:24;96577.06;;;6.05;100.00
43878;BME280;29815;48.184;11.268;2023-01-04T09:34:54;96583.19;;;6.12;100.00
43878;BME280;29815;48.184;11.268;2023-01-04T09:37:25;96581.72;;;6.16;100.00
43878;BME280;29815;48.184;11.268;2023-01-04T09:39:54;96574.50;;;6.17;100.00
43878;BME280;29815;48.184;11.268;2023-01-04T09:42:29;96584.13;;;6.24;100.00
43878;BME280;29815;48.184;11.268;2023-01-04T09:45:15;96586.91;;;6.36;100.00
43878;BME280;29815;48.184;11.268;2023-01-04T09:47:56;96582.31;;;6.43;100.00
43878;BME280;29815;48.184;11.268;2023-01-04T09:50:33;96580.84;;;6.47;100.00
43878;BME280;29815;48.184;11.268;2023-01-04T09:53:10;96573.44;;;6.49;100.00
43878;BME280;29815;48.184;11.268;2023-01-04T09:55:48;96572.91;;;6.59;100.00
43878;BME280;29815;48.184;11.268;2023-01-04T09:58:24;96577.78;;;6.68;100.00
43878;BME280;29815;48.184;11.268;2023-01-04T10:01:01;96571.16;;;6.71;100.00
43878;BME280;29815;48.184;11.268;2023-01-04T10:03:35;96574.63;;;6.78;100.00
43878;BME280;29815;48.184;11.268;2023-01-04T10:06:09;96566.38;;;6.79;100.00
43878;BME280;29815;48.184;11.268;2023-01-04T10:08:44;96564.78;;;6.90;100.00
43878;BME280;29815;48.184;11.268;2023-01-04T10:11:34;96555.81;;;7.03;100.00
43878;BME280;29815;48.184;11.268;2023-01-04T10:14:28;96549.59;;;7.09;100.00
43878;BME280;29815;48.184;11.268;2023-01-04T10:17:29;96544.94;;;7.16;100.00
43878;BME280;29815;48.184;11.268;2023-01-04T10:20:52;96542.19;;;7.23;100.00
43878;BME280;29815;48.184;11.268;2023-01-04T10:24:12;96538.19;;;7.32;100.00
43878;BME280;29815;48.184;11.268;2023-01-04T10:27:10;96529.25;;;7.38;100.00
43878;BME280;29815;48.184;11.268;2023-01-04T10:29:58;96532.50;;;7.40;100.00
43878;BME280;29815;48.184;11.268;2023-01-04T10:32:40;96528.09;;;7.45;100.00
43878;BME280;29815;48.184;11.268;2023-01-04T10:35:20;96525.19;;;7.47;100.00
43878;BME280;29815;48.184;11.268;2023-01-04T10:37:56;96510.19;;;7.46;100.00
43878;BME280;29815;48.184;11.268;2023-01-04T10:40:34;96509.94;;;7.47;100.00
43878;BME280;29815;48.184;11.268;2023-01-04T10:43:15;96501.84;;;7.54;100.00
43878;BME280;29815;48.184;11.268;2023-01-04T10:45:57;96507.56;;;7.58;100.00
43878;BME280;29815;48.184;11.268;2023-01-04T10:48:38;96504.44;;;7.72;100.00
43878;BME280;29815;48.184;11.268;2023-01-04T10:51:12;96499.44;;;7.76;100.00
43878;BME280;29815;48.184;11.268;2023-01-04T10:53:52;96498.91;;;7.86;100.00
43878;BME280;29815;48.184;11.268;2023-01-04T10:56:30;96499.50;;;7.99;100.00
43878;BME280;29815;48.184;11.268;2023-01-04T10:59:08;96479.47;;;8.02;100.00
43878;BME280;29815;48.184;11.268;2023-01-04T11:01:45;96470.97;;;8.05;100.00
43878;BME280;29815;48.184;11.268;2023-01-04T11:04:22;96461.41;;;8.09;100.00
43878;BME280;29815;48.184;11.268;2023-01-04T11:07:01;96457.59;;;8.17;100.00
43878;BME280;29815;48.184;11.268;2023-01-04T11:09:41;96449.53;;;8.28;100.00
43878;BME280;29815;48.184;11.268;2023-01-04T11:12:18;96456.53;;;8.29;100.00
43878;BME280;29815;48.184;11.268;2023-01-04T11:14:50;96454.81;;;8.35;100.00
43878;BME280;29815;48.184;11.268;2023-01-04T11:17:21;96440.69;;;8.39;100.00
43878;BME280;29815;48.184;11.268;2023-01-04T11:19:52;96438.84;;;8.40;100.00
43878;BME280;29815;48.184;11.268;2023-01-04T11:22:27;96443.03;;;8.47;100.00
43878;BME280;29815;48.184;11.268;2023-01-04T11:25:02;96445.13;;;8.45;100.00
43878;BME280;29815;48.184;11.268;2023-01-04T11:27:59;96442.78;;;8.49;100.00
43878;BME280;29815;48.184;11.268;2023-01-04T11:30:41;96436.81;;;8.59;100.00
43878;BME280;29815;48.184;11.268;2023-01-04T11:33:17;96435.19;;;8.69;100.00
43878;BME280;29815;48.184;11.268;2023-01-04T11:35:50;96437.28;;;8.67;100.00
43878;BME280;29815;48.184;11.268;2023-01-04T11:38:23;96424.69;;;8.68;100.00
43878;BME280;29815;48.184;11.268;2023-01-04T11:40:56;96413.00;;;8.74;100.00
43878;BME280;29815;48.184;11.268;2023-01-04T11:43:30;96410.06;;;8.75;100.00
43878;BME280;29815;48.184;11.268;2023-01-04T11:46:03;96411.97;;;8.75;100.00
43878;BME280;29815;48.184;11.268;2023-01-04T11:48:42;96404.00;;;8.80;100.00
43878;BME280;29815;48.184;11.268;2023-01-04T11:51:19;96401.41;;;8.85;100.00
43878;BME280;29815;48.184;11.268;2023-01-04T11:54:16;96397.78;;;8.91;100.00
43878;BME280;29815;48.184;11.268;2023-01-04T11:57:01;96407.81;;;8.96;100.00
43878;BME280;29815;48.184;11.268;2023-01-04T11:59:40;96398.84;;;8.90;100.00
43878;BME280;29815;48.184;11.268;2023-01-04T12:02:19;96405.72;;;8.98;100.00
43878;BME280;29815;48.184;11.268;2023-01-04T12:05:18;96400.34;;;8.98;100.00
43878;BME280;29815;48.184;11.268;2023-01-04T12:07:57;96391.81;;;9.01;100.00
43878;BME280;29815;48.184;11.268;2023-01-04T12:10:27;96384.56;;;9.01;100.00
43878;BME280;29815;48.184;11.268;2023-01-04T12:13:00;96396.13;;;9.02;100.00
43878;BME280;29815;48.184;11.268;2023-01-04T12:15:48;96391.22;;;8.99;100.00
43878;BME280;29815;48.184;11.268;2023-01-04T12:18:29;96367.88;;;8.99;100.00
43878;BME280;29815;48.184;11.268;2023-01-04T12:21:02;96367.41;;;9.02;100.00
43878;BME280;29815;48.184;11.268;2023-01-04T12:23:32;96366.59;;;9.02;100.00
43878;BME280;29815;48.184;11.268;2023-01-04T12:26:02;96361.78;;;9.04;100.00
43878;BME280;29815;48.184;11.268;2023-01-04T12:28:35;96359.09;;;9.04;100.00
43878;BME280;29815;48.184;11.268;2023-01-04T12:31:28;96354.22;;;9.01;100.00
43878;BME280;29815;48.184;11.268;2023-01-04T12:34:39;96349.91;;;9.00;100.00
43878;BME280;29815;48.184;11.268;2023-01-04T12:37:42;96344.28;;;9.01;100.00
43878;BME280;29815;48.184;11.268;2023-01-04T12:40:51;96330.59;;;9.03;100.00
43878;BME280;29815;48.184;11.268;2023-01-04T12:43:24;96330.06;;;9.01;100.00
43878;BME280;29815;48.184;11.268;2023-01-04T12:46:40;96333.72;;;9.11;100.00
43878;BME280;29815;48.184;11.268;2023-01-04T12:49:50;96316.78;;;9.11;100.00
43878;BME280;29815;48.184;11.268;2023-01-04T12:52:42;96331.28;;;9.10;100.00
43878;BME280;29815;48.184;11.268;2023-01-04T12:55:56;96342.69;;;9.17;100.00
43878;BME280;29815;48.184;11.268;2023-01-04T13:02:17;96326.56;;;9.17;100.00
43878;BME280;29815;48.184;11.268;2023-01-04T13:04:51;96330.41;;;9.21;98.97
43878;BME280;29815;48.184;11.268;2023-01-04T13:07:44;96331.63;;;9.30;96.35
43878;BME280;29815;48.184;11.268;2023-01-04T13:10:26;96334.41;;;9.35;99.22
43878;BME280;29815;48.184;11.268;2023-01-04T13:13:19;96336.03;;;9.36;94.79
43878;BME280;29815;48.184;11.268;2023-01-04T13:16:08;96334.97;;;9.37;93.26
43878;BME280;29815;48.184;11.268;2023-01-04T13:18:47;96320.63;;;9.32;89.57
43878;BME280;29815;48.184;11.268;2023-01-04T13:21:26;96314.22;;;9.33;90.32
43878;BME280;29815;48.184;11.268;2023-01-04T13:23:58;96313.47;;;9.37;85.69
43878;BME280;29815;48.184;11.268;2023-01-04T13:26:36;96303.88;;;9.41;80.02
43878;BME280;29815;48.184;11.268;2023-01-04T13:29:17;96312.03;;;9.46;83.38
43878;BME280;29815;48.184;11.268;2023-01-04T13:31:54;96310.06;;;9.42;77.92
43878;BME280;29815;48.184;11.268;2023-01-04T13:34:30;96316.09;;;9.49;77.28
43878;BME280;29815;48.184;11.268;2023-01-04T13:37:14;96319.38;;;9.51;73.52
43878;BME280;29815;48.184;11.268;2023-01-04T13:39:50;96311.13;;;9.58;76.20
43878;BME280;29815;48.184;11.268;2023-01-04T13:42:25;96315.19;;;9.60;75.47
43878;BME280;29815;48.184;11.268;2023-01-04T13:48:36;96300.47;;;9.63;74.94